createdAt,value
2019-01-31T00:01:17.549Z,-0.10
2019-01-31T00:04:44.015Z,-0.09
2019-01-31T00:07:50.474Z,-0.17
2019-01-31T00:10:58.171Z,-0.21
2019-01-31T00:14:02.887Z,-0.24
2019-01-31T00:17:05.650Z,-0.26
2019-01-31T00:20:38.870Z,-0.28
2019-01-31T00:24:10.460Z,-0.32
2019-01-31T04:19:33.750Z,-2.16
2019-01-31T04:22:21.244Z,-2.29
2019-01-31T04:24:48.451Z,-2.44
2019-01-31T04:27:15.572Z,-2.44
2019-01-31T04:29:42.780Z,-2.40
2019-01-31T04:32:10.238Z,-2.38
2019-01-31T04:34:37.276Z,-2.40
2019-01-31T04:37:04.340Z,-2.49
2019-01-31T04:39:33.235Z,-2.54
2019-01-31T04:42:00.299Z,-2.54
2019-01-31T04:44:27.512Z,-2.53
2019-01-31T04:46:54.611Z,-2.55
2019-01-31T04:49:21.872Z,-2.57
2019-01-31T04:51:54.790Z,-2.59
2019-01-31T04:54:21.907Z,-2.67
2019-01-31T04:56:48.994Z,-2.73
2019-01-31T04:59:16.054Z,-2.74
2019-01-31T05:01:43.190Z,-2.73
2019-01-31T05:04:10.249Z,-2.77
2019-01-31T05:06:37.317Z,-2.77
2019-01-31T05:09:06.604Z,-2.71
2019-01-31T05:11:33.671Z,-2.75
2019-01-31T05:14:00.839Z,-2.76
2019-01-31T05:16:27.935Z,-2.73
2019-01-31T05:18:55.129Z,-2.78
2019-01-31T05:21:22.168Z,-2.88
2019-01-31T05:23:49.215Z,-3.09
2019-01-31T05:26:16.329Z,-3.18
2019-01-31T05:28:43.625Z,-3.12
2019-01-31T05:31:10.692Z,-3.07
2019-01-31T05:33:37.893Z,-3.03
2019-01-31T05:36:04.938Z,-3.03
2019-01-31T05:38:31.988Z,-3.06
2019-01-31T05:40:59.072Z,-3.04
2019-01-31T05:43:26.153Z,-3.00
2019-01-31T05:45:53.204Z,-2.99
2019-01-31T05:48:20.293Z,-3.00
2019-01-31T05:50:47.354Z,-3.01
2019-01-31T05:53:14.432Z,-3.03
2019-01-31T05:55:41.736Z,-3.02
2019-01-31T05:58:08.901Z,-3.08
2019-01-31T06:00:37.599Z,-3.14
2019-01-31T06:03:04.731Z,-3.15
2019-01-31T06:05:31.841Z,-3.12
2019-01-31T06:07:58.905Z,-3.07
2019-01-31T06:10:25.998Z,-3.09
2019-01-31T06:12:53.045Z,-3.21
2019-01-31T06:15:20.105Z,-3.25
2019-01-31T06:17:47.381Z,-3.26
2019-01-31T06:20:17.575Z,-3.33
2019-01-31T06:22:44.632Z,-3.41
2019-01-31T06:25:11.756Z,-3.37
2019-01-31T06:27:38.822Z,-3.26
2019-01-31T06:30:06.887Z,-3.28
2019-01-31T06:32:33.955Z,-3.36
2019-01-31T06:35:01.143Z,-3.36
2019-01-31T06:37:28.174Z,-3.37
2019-01-31T06:39:55.258Z,-3.34
2019-01-31T06:42:22.328Z,-3.33
2019-01-31T06:44:49.393Z,-3.30
2019-01-31T06:47:16.516Z,-3.27
2019-01-31T06:49:43.734Z,-3.22
2019-01-31T06:52:10.794Z,-3.15
2019-01-31T06:54:37.986Z,-3.15
2019-01-31T06:57:05.133Z,-3.13
2019-01-31T06:59:32.186Z,-3.08
2019-01-31T07:01:59.304Z,-3.07
2019-01-31T07:04:26.440Z,-3.05
2019-01-31T07:06:53.672Z,-3.05
2019-01-31T07:09:20.740Z,-3.06
2019-01-31T07:11:47.846Z,-3.17
2019-01-31T07:14:15.154Z,-3.20
2019-01-31T07:17:00.449Z,-3.22
2019-01-31T07:19:27.576Z,-3.26
2019-01-31T07:21:54.662Z,-3.24
2019-01-31T07:24:21.747Z,-3.26
2019-01-31T07:26:48.844Z,-3.28
2019-01-31T07:29:15.893Z,-3.28
2019-01-31T07:31:42.949Z,-3.32
2019-01-31T07:34:10.095Z,-3.37
2019-01-31T07:36:37.182Z,-3.39
2019-01-31T07:39:07.041Z,-3.36
2019-01-31T07:41:41.027Z,-3.34
2019-01-31T07:44:03.324Z,-3.33
2019-01-31T07:46:30.390Z,-3.31
2019-01-31T07:48:59.317Z,-3.30
2019-01-31T07:51:26.389Z,-3.25
2019-01-31T07:53:53.434Z,-3.26
2019-01-31T07:56:20.573Z,-3.25
2019-01-31T07:58:47.659Z,-3.24
2019-01-31T08:01:14.721Z,-3.22
2019-01-31T08:03:41.827Z,-3.27
2019-01-31T08:06:09.149Z,-3.30
2019-01-31T08:08:36.235Z,-3.29
2019-01-31T08:11:03.392Z,-3.40
2019-01-31T08:13:30.498Z,-3.44
2019-01-31T08:15:57.566Z,-3.43
2019-01-31T08:18:24.679Z,-3.33
2019-01-31T08:20:51.787Z,-3.29
2019-01-31T08:23:18.884Z,-3.27
2019-01-31T08:25:45.990Z,-3.24
2019-01-31T08:28:13.073Z,-3.18
2019-01-31T08:30:41.550Z,-3.20
2019-01-31T08:33:08.642Z,-3.20
2019-01-31T08:35:35.731Z,-3.20
2019-01-31T08:38:03.178Z,-3.16
2019-01-31T08:40:30.290Z,-3.12
2019-01-31T08:42:57.349Z,-3.05
2019-01-31T08:45:24.410Z,-2.99
2019-01-31T08:47:54.541Z,-2.95
2019-01-31T08:50:23.170Z,-2.95
2019-01-31T08:52:50.247Z,-2.94
2019-01-31T08:55:17.370Z,-2.90
2019-01-31T08:57:47.423Z,-2.89
2019-01-31T09:00:16.319Z,-2.85
2019-01-31T09:02:43.448Z,-2.84
2019-01-31T09:05:10.543Z,-2.81
2019-01-31T09:07:37.587Z,-2.75
2019-01-31T09:10:07.174Z,-2.65
2019-01-31T09:12:34.201Z,-2.61
2019-01-31T09:15:01.258Z,-2.59
2019-01-31T09:17:28.344Z,-2.54
2019-01-31T09:20:31.618Z,-2.53
2019-01-31T09:23:20.902Z,-2.52
2019-01-31T09:26:11.432Z,-2.48
2019-01-31T09:29:14.934Z,-2.43
2019-01-31T09:32:16.103Z,-2.38
2019-01-31T09:35:07.913Z,-2.30
2019-01-31T09:38:30.353Z,-2.24
2019-01-31T09:41:42.138Z,-2.17
2019-01-31T09:44:39.568Z,-2.08
2019-01-31T09:47:23.840Z,-1.96
2019-01-31T09:50:36.444Z,-1.83
2019-01-31T09:53:30.172Z,-1.73
2019-01-31T09:57:09.169Z,-1.67
2019-01-31T10:00:04.888Z,-1.51
2019-01-31T10:03:22.627Z,-1.30
2019-01-31T10:06:24.578Z,-1.14
2019-01-31T10:09:16.205Z,-0.96
2019-01-31T10:12:40.295Z,-0.84
2019-01-31T10:15:39.142Z,-0.72
2019-01-31T10:18:33.479Z,-0.60
2019-01-31T10:21:31.081Z,-0.55
2019-01-31T10:24:39.608Z,-0.38
2019-01-31T10:27:45.908Z,-0.29
2019-01-31T10:30:41.720Z,-0.20
2019-01-31T10:33:59.895Z,-0.07
2019-01-31T10:36:43.863Z,0.07
2019-01-31T10:39:28.095Z,0.12
2019-01-31T10:42:27.560Z,0.13
2019-01-31T10:45:39.360Z,0.19
2019-01-31T10:48:58.280Z,0.28
2019-01-31T10:51:54.956Z,0.28
2019-01-31T10:55:14.243Z,0.31
2019-01-31T10:58:10.049Z,0.38
2019-01-31T11:01:18.110Z,0.38
2019-01-31T11:04:26.661Z,0.41
2019-01-31T11:07:38.140Z,0.46
2019-01-31T11:10:56.577Z,0.62
2019-01-31T11:13:52.755Z,0.71
2019-01-31T11:16:32.775Z,0.69
2019-01-31T11:19:17.266Z,0.69
2019-01-31T11:22:25.198Z,0.67
2019-01-31T11:25:07.271Z,0.69
2019-01-31T11:28:27.982Z,0.67
2019-01-31T11:31:15.254Z,0.71
2019-01-31T11:34:19.598Z,0.84
2019-01-31T11:37:07.581Z,0.96
2019-01-31T11:39:55.936Z,1.02
2019-01-31T11:42:51.755Z,1.09
2019-01-31T11:45:30.246Z,1.19
2019-01-31T11:48:53.862Z,1.16
2019-01-31T11:52:11.455Z,1.17
2019-01-31T11:55:21.312Z,1.26
2019-01-31T11:58:21.904Z,1.27
2019-01-31T12:00:48.968Z,1.29
2019-01-31T12:03:16.035Z,1.25
2019-01-31T12:05:43.581Z,1.29
2019-01-31T12:08:10.755Z,1.42
2019-01-31T12:10:37.915Z,1.46
2019-01-31T12:13:05.307Z,1.52
2019-01-31T12:15:32.766Z,1.44
2019-01-31T12:17:59.886Z,1.40
2019-01-31T12:20:27.253Z,1.47
2019-01-31T12:22:54.429Z,1.50
2019-01-31T12:25:21.546Z,1.52
2019-01-31T12:27:48.636Z,1.53
2019-01-31T12:30:19.088Z,1.53
2019-01-31T12:32:46.216Z,1.53
2019-01-31T12:35:13.383Z,1.53
2019-01-31T12:37:40.589Z,1.49
2019-01-31T12:40:10.970Z,1.47
2019-01-31T12:42:38.094Z,1.48
2019-01-31T12:45:06.336Z,1.49
2019-01-31T12:47:33.385Z,1.57
2019-01-31T12:50:00.452Z,1.55
2019-01-31T12:52:27.549Z,1.59
2019-01-31T12:54:54.591Z,1.70
2019-01-31T12:57:21.653Z,1.75
2019-01-31T12:59:48.728Z,1.84
2019-01-31T13:02:16.146Z,1.85
2019-01-31T13:04:43.197Z,1.84
2019-01-31T13:07:10.986Z,1.83
2019-01-31T13:09:38.031Z,1.84
2019-01-31T13:12:06.007Z,1.79
2019-01-31T13:14:33.083Z,1.79
2019-01-31T13:17:00.215Z,1.79
2019-01-31T13:19:27.269Z,1.75
2019-01-31T13:21:54.370Z,1.75
2019-01-31T13:24:21.472Z,1.80
2019-01-31T13:26:48.531Z,1.74
2019-01-31T13:29:15.614Z,1.69
2019-01-31T13:31:42.759Z,1.57
2019-01-31T13:34:09.833Z,1.53
2019-01-31T13:36:36.970Z,1.50
2019-01-31T13:39:10.183Z,1.53
2019-01-31T13:41:37.344Z,1.59
2019-01-31T13:44:04.741Z,1.58
2019-01-31T13:46:31.854Z,1.50
2019-01-31T13:48:59.047Z,1.41
2019-01-31T13:51:26.110Z,1.50
2019-01-31T13:53:53.322Z,1.43
2019-01-31T13:56:26.199Z,1.47
2019-01-31T13:58:53.263Z,1.37
2019-01-31T14:01:20.377Z,1.31
2019-01-31T14:03:47.475Z,1.34
2019-01-31T14:06:14.531Z,1.42
2019-01-31T14:08:41.638Z,1.54
2019-01-31T14:11:08.735Z,1.65
2019-01-31T14:13:35.894Z,1.95
2019-01-31T14:16:03.144Z,2.39
2019-01-31T14:18:30.314Z,2.77
2019-01-31T14:20:57.364Z,3.04
2019-01-31T14:23:24.501Z,3.15
2019-01-31T14:25:51.630Z,3.07
2019-01-31T14:29:02.840Z,2.98
2019-01-31T14:31:29.998Z,3.06
2019-01-31T14:33:57.049Z,2.97
2019-01-31T14:36:24.393Z,2.89
2019-01-31T14:38:51.475Z,2.75
2019-01-31T14:41:18.541Z,2.70
2019-01-31T14:43:46.131Z,2.58
2019-01-31T14:46:13.474Z,2.55
2019-01-31T14:48:40.671Z,2.40
2019-01-31T14:51:07.882Z,2.23
2019-01-31T14:54:02.601Z,2.00
2019-01-31T14:56:29.685Z,1.75
2019-01-31T14:58:56.832Z,1.59
2019-01-31T15:01:23.946Z,1.54
2019-01-31T15:03:51.639Z,1.38
2019-01-31T15:06:18.892Z,1.22
2019-01-31T15:08:46.172Z,1.14
2019-01-31T15:11:13.245Z,1.20
2019-01-31T15:13:40.312Z,1.31
2019-01-31T15:16:10.567Z,1.40
2019-01-31T15:18:37.619Z,1.35
2019-01-31T15:21:04.674Z,1.37
2019-01-31T15:23:32.122Z,1.45
2019-01-31T15:25:59.290Z,1.50
2019-01-31T15:28:26.373Z,1.51
2019-01-31T15:30:53.482Z,1.50
2019-01-31T15:33:20.673Z,1.53
2019-01-31T15:35:47.827Z,1.51
2019-01-31T15:38:14.942Z,1.47
2019-01-31T15:40:46.117Z,1.42
2019-01-31T15:43:13.186Z,1.36
2019-01-31T15:45:40.572Z,1.28
2019-01-31T15:48:10.534Z,1.19
2019-01-31T15:50:37.706Z,1.11
2019-01-31T15:53:05.291Z,1.01
2019-01-31T15:55:33.044Z,0.94
2019-01-31T15:58:00.225Z,0.86
2019-01-31T16:00:45.393Z,0.85
2019-01-31T16:03:14.724Z,0.77
2019-01-31T16:05:42.219Z,0.73
2019-01-31T16:08:09.740Z,0.67
2019-01-31T16:10:36.885Z,0.61
2019-01-31T16:13:04.700Z,0.55
2019-01-31T16:15:32.009Z,0.49
2019-01-31T16:17:59.075Z,0.42
2019-01-31T16:20:26.163Z,0.33
2019-01-31T16:22:53.314Z,0.21
2019-01-31T16:25:22.709Z,0.10
2019-01-31T16:27:49.805Z,0.01
2019-01-31T16:30:17.311Z,-0.09
2019-01-31T16:32:44.520Z,-0.22
2019-01-31T16:35:12.578Z,-0.34
2019-01-31T16:37:39.706Z,-0.49
2019-01-31T16:40:09.333Z,-0.56
2019-01-31T16:42:36.384Z,-0.65
2019-01-31T16:45:06.730Z,-0.75
2019-01-31T16:47:34.264Z,-0.82
2019-01-31T16:50:01.518Z,-0.88
2019-01-31T16:52:28.756Z,-0.96
2019-01-31T16:54:55.805Z,-1.06
2019-01-31T16:57:22.855Z,-1.14
2019-01-31T16:59:52.177Z,-1.19
2019-01-31T17:02:19.266Z,-1.22
2019-01-31T17:04:46.324Z,-1.32
2019-01-31T17:07:13.648Z,-1.37
2019-01-31T17:09:40.752Z,-1.39
2019-01-31T17:12:07.950Z,-1.45
2019-01-31T17:14:35.020Z,-1.48
2019-01-31T17:17:02.521Z,-1.51
2019-01-31T17:19:29.601Z,-1.55
2019-01-31T17:21:56.683Z,-1.61
2019-01-31T17:24:23.943Z,-1.63
2019-01-31T17:26:51.033Z,-1.69
2019-01-31T17:29:18.167Z,-1.71
2019-01-31T17:31:45.284Z,-1.71
2019-01-31T17:34:12.376Z,-1.71
2019-01-31T17:36:39.591Z,-1.70
2019-01-31T17:39:08.418Z,-1.71
2019-01-31T17:41:35.563Z,-1.73
2019-01-31T17:44:02.682Z,-1.75
2019-01-31T17:46:29.762Z,-1.75
2019-01-31T17:48:56.906Z,-1.74
2019-01-31T17:51:24.299Z,-1.78
2019-01-31T17:53:51.469Z,-1.84
2019-01-31T17:56:18.576Z,-1.88
2019-01-31T17:58:46.021Z,-1.90
2019-01-31T18:01:13.345Z,-1.92
2019-01-31T18:03:40.491Z,-1.97
2019-01-31T18:06:18.728Z,-2.01
2019-01-31T18:08:44.828Z,-2.05
2019-01-31T18:11:11.952Z,-2.09
2019-01-31T18:13:39.088Z,-2.12
2019-01-31T18:16:06.159Z,-2.16
2019-01-31T18:18:33.237Z,-2.18
2019-01-31T18:21:00.487Z,-2.20
2019-01-31T18:23:27.589Z,-2.21
2019-01-31T18:25:54.716Z,-2.20
2019-01-31T18:28:21.891Z,-2.22
2019-01-31T18:30:49.012Z,-2.29
2019-01-31T18:33:16.567Z,-2.30
2019-01-31T18:35:43.983Z,-2.32
2019-01-31T18:38:11.083Z,-2.36
2019-01-31T18:40:38.220Z,-2.39
2019-01-31T18:43:05.558Z,-2.38
2019-01-31T18:45:32.791Z,-2.33
2019-01-31T18:48:00.395Z,-2.28
2019-01-31T18:50:29.531Z,-2.30
2019-01-31T18:52:56.843Z,-2.28
2019-01-31T18:55:24.351Z,-2.25
2019-01-31T18:57:51.795Z,-2.24
2019-01-31T19:00:24.805Z,-2.24
2019-01-31T19:02:52.173Z,-2.28
2019-01-31T19:05:19.308Z,-2.35
2019-01-31T19:07:46.514Z,-2.40
2019-01-31T19:10:15.353Z,-2.43
2019-01-31T19:12:43.066Z,-2.47
2019-01-31T19:15:11.023Z,-2.49
2019-01-31T19:17:38.187Z,-2.51
2019-01-31T19:20:10.681Z,-2.46
2019-01-31T19:22:37.841Z,-2.27
2019-01-31T19:25:07.003Z,-2.10
2019-01-31T19:27:36.327Z,-2.03
2019-01-31T19:30:06.099Z,-1.98
2019-01-31T19:32:33.338Z,-1.97
2019-01-31T19:35:00.570Z,-2.05
2019-01-31T19:37:27.736Z,-2.15
2019-01-31T19:39:54.872Z,-2.20
2019-01-31T19:43:17.111Z,-2.26
2019-01-31T19:45:49.152Z,-2.28
2019-01-31T19:48:16.845Z,-2.35
2019-01-31T19:50:44.068Z,-2.39
2019-01-31T19:53:11.554Z,-2.38
2019-01-31T19:55:39.151Z,-2.38
2019-01-31T19:58:06.616Z,-2.38
2019-01-31T20:00:34.055Z,-2.34
2019-01-31T20:03:01.365Z,-2.21
2019-01-31T20:05:28.647Z,-2.17
2019-01-31T20:07:56.184Z,-2.16
2019-01-31T20:10:24.612Z,-2.13
2019-01-31T20:12:52.385Z,-2.14
2019-01-31T20:15:19.650Z,-2.19
2019-01-31T20:17:47.534Z,-2.19
2019-01-31T20:20:19.595Z,-2.17
2019-01-31T20:22:47.053Z,-2.20
2019-01-31T20:25:15.366Z,-2.19
2019-01-31T20:27:43.184Z,-2.15
2019-01-31T20:30:11.574Z,-2.12
2019-01-31T20:32:38.665Z,-2.13
2019-01-31T20:35:07.777Z,-2.12
2019-01-31T20:37:38.475Z,-2.16
2019-01-31T20:40:07.956Z,-2.15
2019-01-31T20:42:35.064Z,-2.12
2019-01-31T20:45:02.440Z,-2.10
2019-01-31T20:47:29.499Z,-2.10
2019-01-31T20:49:56.786Z,-2.04
2019-01-31T20:52:24.547Z,-2.04
2019-01-31T20:54:51.752Z,-2.05
2019-01-31T20:57:18.884Z,-2.05
2019-01-31T20:59:45.990Z,-2.05
2019-01-31T21:02:13.099Z,-2.05
2019-01-31T21:04:40.291Z,-2.05
2019-01-31T21:07:07.567Z,-2.08
2019-01-31T21:09:34.843Z,-2.09
2019-01-31T21:12:03.860Z,-2.07
2019-01-31T21:14:30.948Z,-2.09
2019-01-31T21:16:58.509Z,-2.09
2019-01-31T21:19:25.889Z,-2.08
2019-01-31T21:21:53.030Z,-2.06
2019-01-31T21:24:20.157Z,-2.04
2019-01-31T21:26:47.336Z,-2.02
2019-01-31T21:29:14.482Z,-2.00
2019-01-31T21:31:41.635Z,-1.96
2019-01-31T21:34:08.841Z,-1.91
2019-01-31T21:36:36.029Z,-1.87
2019-01-31T21:39:06.842Z,-1.81
2019-01-31T21:41:34.099Z,-1.79
2019-01-31T21:47:43.248Z,-1.78
2019-01-31T21:50:13.070Z,-1.76
2019-01-31T21:52:40.210Z,-1.72
2019-01-31T21:55:08.190Z,-1.70
2019-01-31T21:57:35.286Z,-1.67
2019-01-31T22:00:05.727Z,-1.65
2019-01-31T22:02:32.969Z,-1.63
2019-01-31T22:05:00.055Z,-1.58
2019-01-31T22:07:27.131Z,-1.56
2019-01-31T22:09:54.424Z,-1.54
2019-01-31T22:12:21.547Z,-1.53
2019-01-31T22:14:48.634Z,-1.48
2019-01-31T22:17:15.878Z,-1.46
2019-01-31T22:19:43.003Z,-1.43
2019-01-31T22:22:10.301Z,-1.40
2019-01-31T22:24:39.246Z,-1.40
2019-01-31T22:27:06.529Z,-1.39
2019-01-31T22:29:33.639Z,-1.38
2019-01-31T22:32:00.724Z,-1.35
2019-01-31T22:34:27.956Z,-1.33
2019-01-31T22:36:55.180Z,-1.31
2019-01-31T22:39:22.401Z,-1.25
2019-01-31T22:41:50.382Z,-1.21
2019-01-31T22:44:17.586Z,-1.17
2019-01-31T22:46:44.809Z,-1.13
2019-01-31T22:49:12.001Z,-1.07
2019-01-31T22:51:39.156Z,-1.04
2019-01-31T22:54:06.454Z,-1.02
2019-01-31T22:57:33.199Z,-0.97
2019-01-31T23:00:00.312Z,-0.96
2019-01-31T23:02:27.984Z,-0.96
2019-01-31T23:04:55.163Z,-0.95
2019-01-31T23:07:22.253Z,-0.93
2019-01-31T23:09:49.312Z,-0.89
2019-01-31T23:12:20.975Z,-0.88
2019-01-31T23:14:48.036Z,-0.87
2019-01-31T23:17:15.189Z,-0.84
2019-01-31T23:20:00.449Z,-0.81
2019-01-31T23:22:27.580Z,-0.83
2019-01-31T23:24:54.737Z,-0.82
2019-01-31T23:27:22.834Z,-0.82
2019-01-31T23:29:50.012Z,-0.82
2019-01-31T23:32:17.142Z,-0.78
2019-01-31T23:35:26.348Z,-0.75
2019-01-31T23:38:36.374Z,-0.75
2019-01-31T23:41:58.884Z,-0.74
2019-01-31T23:44:25.988Z,-0.70
2019-01-31T23:46:53.068Z,-0.69
2019-01-31T23:49:20.315Z,-0.67
2019-01-31T23:51:47.411Z,-0.64
2019-01-31T23:54:14.644Z,-0.65
2019-01-31T23:56:41.943Z,-0.62
2019-01-31T23:59:09.058Z,-0.62
